Time;durP1;ratioP1;P1;durP2;ratioP2;P2;SDS_P1;SDS_P2;PMS_P1;PMS_P2;Temp;Humidity;BMP_temperature;BMP_pressure;BME280_temperature;BME280_humidity;BME280_pressure;Samples;Min_cycle;Max_cycle;Signal;HPM_P1;HPM_P2
2021/06/18 00:02:09;;;;;;;3.25;2.81;;;;;;;21.79;64.12;100020.97;;;;-52
2021/06/18 00:05:09;;;;;;;3.03;2.73;;;;;;;21.79;64.03;100019.17;;;;-52
2021/06/18 00:08:09;;;;;;;3.74;2.73;;;;;;;21.79;64.15;100023.56;;;;-52
2021/06/18 00:11:09;;;;;;;3.84;2.85;;;;;;;21.78;64.08;100021.55;;;;-52
2021/06/18 00:14:09;;;;;;;3.24;2.77;;;;;;;21.76;64.08;100017.96;;;;-52
2021/06/18 00:17:09;;;;;;;3.47;2.91;;;;;;;21.76;64.10;100017.40;;;;-52
2021/06/18 00:20:09;;;;;;;3.67;2.63;;;;;;;21.76;64.08;100020.02;;;;-52
2021/06/18 00:23:09;;;;;;;4.27;2.65;;;;;;;21.75;64.11;100021.73;;;;-52
2021/06/18 00:26:08;;;;;;;3.02;2.60;;;;;;;21.75;64.12;100017.52;;;;-52
2021/06/18 00:29:09;;;;;;;3.53;2.69;;;;;;;21.74;64.10;100020.84;;;;-52
2021/06/18 00:32:09;;;;;;;2.85;2.55;;;;;;;21.74;64.10;100017.59;;;;-52
2021/06/18 00:35:09;;;;;;;4.00;2.53;;;;;;;21.73;64.04;100016.39;;;;-52
2021/06/18 00:38:09;;;;;;;4.30;2.63;;;;;;;21.73;64.06;100017.86;;;;-52
2021/06/18 00:41:09;;;;;;;4.87;2.74;;;;;;;21.73;64.11;100014.66;;;;-52
2021/06/18 00:44:09;;;;;;;3.53;2.72;;;;;;;21.72;64.10;100012.30;;;;-52
2021/06/18 00:47:09;;;;;;;2.89;2.67;;;;;;;21.71;64.12;100017.54;;;;-52
2021/06/18 00:50:08;;;;;;;3.47;2.73;;;;;;;21.71;64.11;100019.09;;;;-52
2021/06/18 00:53:09;;;;;;;2.85;2.55;;;;;;;21.70;64.12;100018.59;;;;-52
2021/06/18 00:56:08;;;;;;;2.91;2.61;;;;;;;21.70;64.12;100023.41;;;;-52
2021/06/18 00:59:09;;;;;;;2.93;2.61;;;;;;;21.69;64.11;100022.47;;;;-52
2021/06/18 01:02:09;;;;;;;3.12;2.45;;;;;;;21.68;64.15;100024.48;;;;-52
2021/06/18 01:05:09;;;;;;;2.71;2.50;;;;;;;21.69;64.12;100031.27;;;;-52
2021/06/18 01:08:09;;;;;;;2.74;2.34;;;;;;;21.68;64.14;100030.86;;;;-52
2021/06/18 01:11:08;;;;;;;2.78;2.58;;;;;;;21.67;64.12;100031.93;;;;-52
2021/06/18 01:14:09;;;;;;;2.70;2.50;;;;;;;21.68;64.14;100033.55;;;;-52
2021/06/18 01:17:09;;;;;;;3.27;2.53;;;;;;;21.67;64.07;100033.40;;;;-52
2021/06/18 01:20:08;;;;;;;3.30;2.48;;;;;;;21.67;64.10;100034.88;;;;-52
2021/06/18 01:23:09;;;;;;;2.69;2.49;;;;;;;21.67;64.08;100039.03;;;;-52
2021/06/18 01:26:09;;;;;;;3.21;2.65;;;;;;;21.66;64.04;100043.91;;;;-52
2021/06/18 01:29:09;;;;;;;2.82;2.51;;;;;;;21.66;64.07;100050.12;;;;-52
2021/06/18 01:32:09;;;;;;;2.69;2.49;;;;;;;21.66;64.10;100050.36;;;;-52
2021/06/18 01:35:09;;;;;;;3.50;2.62;;;;;;;21.65;64.04;100052.34;;;;-52
2021/06/18 01:38:09;;;;;;;2.63;2.43;;;;;;;21.65;64.10;100050.38;;;;-52
2021/06/18 01:41:09;;;;;;;3.43;2.49;;;;;;;21.65;64.15;100047.63;;;;-52
2021/06/18 01:44:09;;;;;;;2.73;2.53;;;;;;;21.65;64.08;100045.34;;;;-52
2021/06/18 01:47:09;;;;;;;2.68;2.48;;;;;;;21.64;64.09;100041.73;;;;-51
2021/06/18 01:50:09;;;;;;;2.79;2.45;;;;;;;21.64;64.06;100036.67;;;;-52
2021/06/18 01:53:09;;;;;;;2.63;2.43;;;;;;;21.64;64.03;100039.30;;;;-52
2021/06/18 01:56:09;;;;;;;2.69;2.46;;;;;;;21.63;64.04;100039.06;;;;-52
2021/06/18 01:59:08;;;;;;;2.61;2.41;;;;;;;21.64;64.07;100037.34;;;;-52
2021/06/18 02:02:09;;;;;;;2.83;2.50;;;;;;;21.63;64.10;100028.96;;;;-52
2021/06/18 02:05:09;;;;;;;3.37;2.68;;;;;;;21.63;64.12;100022.27;;;;-52
2021/06/18 02:08:09;;;;;;;2.98;2.53;;;;;;;21.63;64.01;100017.70;;;;-51
2021/06/18 02:11:09;;;;;;;3.21;2.70;;;;;;;21.63;64.09;100020.23;;;;-52
2021/06/18 02:14:09;;;;;;;2.75;2.55;;;;;;;21.62;64.09;100024.15;;;;-52
2021/06/18 02:17:09;;;;;;;2.48;2.28;;;;;;;21.62;64.05;100031.73;;;;-51
2021/06/18 02:20:08;;;;;;;2.79;2.45;;;;;;;21.61;64.04;100038.91;;;;-52
2021/06/18 02:23:09;;;;;;;2.75;2.46;;;;;;;21.61;63.99;100041.86;;;;-52
2021/06/18 02:26:09;;;;;;;2.60;2.40;;;;;;;21.61;64.06;100035.92;;;;-52
2021/06/18 02:29:08;;;;;;;2.51;2.31;;;;;;;21.60;64.04;100046.01;;;;-52
2021/06/18 02:32:09;;;;;;;2.70;2.49;;;;;;;21.60;64.03;100038.92;;;;-52
2021/06/18 02:35:08;;;;;;;2.77;2.57;;;;;;;21.60;64.06;100045.61;;;;-58
2021/06/18 02:38:09;;;;;;;2.50;2.30;;;;;;;21.59;63.93;100032.57;;;;-58
2021/06/18 02:41:09;;;;;;;2.52;2.32;;;;;;;21.59;64.01;100046.11;;;;-58
2021/06/18 02:44:09;;;;;;;2.57;2.37;;;;;;;21.59;64.11;100048.31;;;;-58
2021/06/18 02:47:09;;;;;;;3.03;2.49;;;;;;;21.59;64.06;100046.94;;;;-58
2021/06/18 02:50:09;;;;;;;2.45;2.25;;;;;;;21.58;64.05;100052.41;;;;-58
2021/06/18 02:53:09;;;;;;;2.61;2.41;;;;;;;21.58;64.04;100051.50;;;;-58
2021/06/18 02:56:09;;;;;;;2.55;2.35;;;;;;;21.58;63.99;100075.22;;;;-57
2021/06/18 02:59:08;;;;;;;2.61;2.41;;;;;;;21.58;64.04;100080.77;;;;-58
2021/06/18 03:02:10;;;;;;;2.55;2.35;;;;;;;21.58;64.04;100082.64;;;;-58
2021/06/18 03:05:08;;;;;;;2.90;2.60;;;;;;;21.57;64.02;100081.11;;;;-57
2021/06/18 03:08:09;;;;;;;2.60;2.36;;;;;;;21.57;64.00;100076.47;;;;-58
2021/06/18 03:11:09;;;;;;;2.75;2.51;;;;;;;21.57;64.05;100074.52;;;;-58
2021/06/18 03:14:09;;;;;;;2.46;2.26;;;;;;;21.57;64.02;100081.19;;;;-57
2021/06/18 03:17:10;;;;;;;2.92;2.38;;;;;;;21.56;64.05;100082.52;;;;-58
2021/06/18 03:20:08;;;;;;;2.94;2.39;;;;;;;21.56;64.08;100081.05;;;;-58
2021/06/18 03:23:09;;;;;;;2.34;2.14;;;;;;;21.56;64.01;100088.44;;;;-58
2021/06/18 03:26:09;;;;;;;2.66;2.45;;;;;;;21.55;64.09;100100.03;;;;-58
2021/06/18 03:29:09;;;;;;;2.51;2.31;;;;;;;21.55;64.03;100116.68;;;;-58
2021/06/18 03:32:09;;;;;;;2.42;2.22;;;;;;;21.55;64.04;100114.96;;;;-58
2021/06/18 03:35:08;;;;;;;2.45;2.25;;;;;;;21.55;63.97;100113.51;;;;-58
2021/06/18 03:38:09;;;;;;;2.65;2.10;;;;;;;21.54;64.01;100117.83;;;;-58
2021/06/18 03:41:09;;;;;;;2.46;2.26;;;;;;;21.54;64.11;100124.61;;;;-58
2021/06/18 03:44:08;;;;;;;2.41;2.21;;;;;;;21.54;64.01;100123.47;;;;-58
2021/06/18 03:47:09;;;;;;;2.85;2.30;;;;;;;21.54;64.02;100128.76;;;;-58
2021/06/18 03:50:08;;;;;;;2.55;2.35;;;;;;;21.54;64.06;100126.48;;;;-58
2021/06/18 03:53:09;;;;;;;2.56;2.29;;;;;;;21.54;64.07;100134.20;;;;-58
2021/06/18 03:56:09;;;;;;;2.53;2.33;;;;;;;21.54;64.04;100130.30;;;;-58
2021/06/18 03:59:08;;;;;;;2.41;2.21;;;;;;;21.53;64.10;100125.34;;;;-58
2021/06/18 04:02:09;;;;;;;2.47;2.27;;;;;;;21.53;64.08;100129.66;;;;-58
2021/06/18 04:05:08;;;;;;;2.73;2.46;;;;;;;21.53;64.06;100126.32;;;;-58
2021/06/18 04:08:09;;;;;;;2.69;2.29;;;;;;;21.53;64.08;100129.16;;;;-58
2021/06/18 04:11:09;;;;;;;2.59;2.29;;;;;;;21.52;64.15;100128.45;;;;-58
2021/06/18 04:14:11;;;;;;;2.33;2.15;;;;;;;21.53;64.07;100130.55;;;;-58
2021/06/18 04:17:09;;;;;;;2.46;2.26;;;;;;;21.52;64.12;100131.62;;;;-58
2021/06/18 04:20:09;;;;;;;2.44;2.24;;;;;;;21.52;64.20;100128.42;;;;-58
2021/06/18 04:23:09;;;;;;;2.41;2.21;;;;;;;21.53;64.25;100128.69;;;;-59
2021/06/18 04:26:09;;;;;;;2.62;2.30;;;;;;;21.54;64.21;100131.30;;;;-58
2021/06/18 04:29:08;;;;;;;3.47;3.14;;;;;;;21.54;65.45;100131.95;;;;-58
2021/06/18 04:32:09;;;;;;;2.96;2.76;;;;;;;21.54;64.84;100134.63;;;;-58
2021/06/18 04:35:08;;;;;;;4.75;4.15;;;;;;;21.55;66.35;100138.20;;;;-57
2021/06/18 04:38:09;;;;;;;4.87;4.10;;;;;;;21.56;66.95;100144.70;;;;-58
2021/06/18 04:41:09;;;;;;;6.13;4.18;;;;;;;21.56;66.35;100145.30;;;;-58
2021/06/18 04:44:08;;;;;;;6.54;4.36;;;;;;;21.57;66.58;100145.95;;;;-58
2021/06/18 04:47:09;;;;;;;5.91;4.76;;;;;;;21.57;66.77;100150.59;;;;-58
2021/06/18 04:50:08;;;;;;;6.13;5.53;;;;;;;21.57;67.05;100148.63;;;;-58
2021/06/18 04:53:10;;;;;;;5.09;4.55;;;;;;;21.57;66.91;100149.59;;;;-57
2021/06/18 04:56:09;;;;;;;6.79;5.97;;;;;;;21.58;67.41;100146.27;;;;-58
2021/06/18 04:59:08;;;;;;;7.08;5.74;;;;;;;21.58;67.23;100152.94;;;;-55
2021/06/18 05:02:09;;;;;;;6.89;6.15;;;;;;;21.60;67.63;100154.55;;;;-54
2021/06/18 05:05:08;;;;;;;6.70;5.83;;;;;;;21.62;67.33;100155.52;;;;-56
2021/06/18 05:08:08;;;;;;;7.31;6.64;;;;;;;21.62;67.34;100156.89;;;;-60
2021/06/18 05:11:09;;;;;;;7.11;6.44;;;;;;;21.65;67.61;100154.78;;;;-55
2021/06/18 05:14:08;;;;;;;7.13;6.35;;;;;;;21.64;66.63;100154.70;;;;-55
2021/06/18 05:17:09;;;;;;;6.76;6.09;;;;;;;21.64;66.60;100154.69;;;;-55
2021/06/18 05:20:08;;;;;;;7.00;6.19;;;;;;;21.63;66.16;100156.48;;;;-55
2021/06/18 05:23:09;;;;;;;8.05;6.25;;;;;;;21.63;66.19;100151.53;;;;-55
2021/06/18 05:26:09;;;;;;;7.69;6.65;;;;;;;21.63;66.09;100152.50;;;;-56
2021/06/18 05:29:08;;;;;;;7.69;6.13;;;;;;;21.63;66.13;100153.33;;;;-55
2021/06/18 05:32:09;;;;;;;7.02;6.35;;;;;;;21.62;66.06;100147.94;;;;-55
2021/06/18 05:35:08;;;;;;;7.01;6.34;;;;;;;21.61;66.04;100147.88;;;;-56
2021/06/18 05:38:09;;;;;;;7.05;6.45;;;;;;;21.60;66.24;100145.27;;;;-55
2021/06/18 05:41:09;;;;;;;7.06;6.31;;;;;;;21.60;66.05;100144.78;;;;-55
2021/06/18 05:44:08;;;;;;;6.91;6.16;;;;;;;21.59;66.00;100142.58;;;;-55
2021/06/18 05:47:09;;;;;;;7.71;6.16;;;;;;;21.59;65.95;100144.13;;;;-54
2021/06/18 05:50:08;;;;;;;6.65;6.05;;;;;;;21.58;65.95;100144.63;;;;-55
2021/06/18 05:53:09;;;;;;;6.87;6.19;;;;;;;21.58;65.93;100140.54;;;;-55
2021/06/18 05:56:09;;;;;;;6.55;5.95;;;;;;;21.58;65.88;100142.25;;;;-55
2021/06/18 05:59:08;;;;;;;6.61;6.01;;;;;;;21.57;65.91;100141.28;;;;-55
2021/06/18 06:02:08;;;;;;;6.63;6.03;;;;;;;21.58;65.77;100147.62;;;;-53
2021/06/18 06:05:08;;;;;;;6.56;5.96;;;;;;;21.57;65.82;100148.45;;;;-53
2021/06/18 06:08:08;;;;;;;6.85;6.16;;;;;;;21.56;65.83;100146.84;;;;-53
2021/06/18 06:11:10;;;;;;;6.87;6.13;;;;;;;21.57;65.87;100142.69;;;;-52
2021/06/18 06:14:16;;;;;;;6.51;5.91;;;;;;;21.56;65.72;100140.66;;;;-52
2021/06/18 06:17:08;;;;;;;6.55;5.94;;;;;;;21.56;65.76;100133.94;;;;-52
2021/06/18 06:20:09;;;;;;;6.08;5.58;;;;;;;21.56;65.61;100132.23;;;;-52
2021/06/18 06:23:08;;;;;;;6.31;5.75;;;;;;;21.55;65.77;100120.44;;;;-52
2021/06/18 06:26:09;;;;;;;6.63;5.90;;;;;;;21.55;65.62;100118.87;;;;-52
2021/06/18 06:29:08;;;;;;;6.39;5.83;;;;;;;21.55;65.60;100119.11;;;;-52
2021/06/18 06:32:08;;;;;;;6.32;5.73;;;;;;;21.55;65.62;100114.22;;;;-53
2021/06/18 06:35:09;;;;;;;6.36;5.76;;;;;;;21.55;65.57;100112.93;;;;-52
2021/06/18 06:38:08;;;;;;;6.22;5.62;;;;;;;21.54;65.55;100110.33;;;;-52
2021/06/18 06:41:09;;;;;;;6.27;5.67;;;;;;;21.54;65.58;100104.04;;;;-55
2021/06/18 06:44:08;;;;;;;6.28;5.71;;;;;;;21.54;65.56;100097.92;;;;-55
2021/06/18 06:47:08;;;;;;;6.55;5.90;;;;;;;21.54;65.53;100101.44;;;;-57
2021/06/18 06:50:08;;;;;;;6.20;5.70;;;;;;;21.53;65.50;100098.91;;;;-55
2021/06/18 06:53:09;;;;;;;6.01;5.51;;;;;;;21.54;65.51;100102.65;;;;-55
2021/06/18 06:56:09;;;;;;;5.85;5.35;;;;;;;21.53;65.48;100105.59;;;;-55
2021/06/18 06:59:08;;;;;;;6.07;5.57;;;;;;;21.54;65.51;100103.55;;;;-56
2021/06/18 07:02:08;;;;;;;6.13;5.63;;;;;;;21.52;65.39;100100.08;;;;-56
2021/06/18 07:05:09;;;;;;;6.01;5.51;;;;;;;21.53;65.39;100103.23;;;;-55
2021/06/18 07:08:08;;;;;;;6.15;5.65;;;;;;;21.53;65.50;100100.39;;;;-56
2021/06/18 07:11:09;;;;;;;14.85;5.57;;;;;;;21.53;65.75;100095.09;;;;-57
2021/06/18 07:14:08;;;;;;;5.92;5.42;;;;;;;21.55;65.58;100097.20;;;;-62
2021/06/18 07:17:08;;;;;;;6.07;5.51;;;;;;;21.56;65.67;100100.59;;;;-57
2021/06/18 07:20:09;;;;;;;6.03;5.48;;;;;;;21.57;65.76;100097.34;;;;-61
2021/06/18 07:23:09;;;;;;;5.69;5.19;;;;;;;21.58;65.93;100096.42;;;;-64
2021/06/18 07:26:09;;;;;;;5.77;5.27;;;;;;;21.59;66.09;100096.19;;;;-60
2021/06/18 07:29:08;;;;;;;5.54;4.99;;;;;;;21.59;66.13;100095.11;;;;-59
2021/06/18 07:32:08;;;;;;;5.64;5.14;;;;;;;21.62;65.98;100100.47;;;;-61
2021/06/18 07:35:09;;;;;;;5.77;5.27;;;;;;;21.63;66.02;100101.37;;;;-59
2021/06/18 07:38:08;;;;;;;6.45;5.31;;;;;;;21.64;66.23;100103.23;;;;-64
2021/06/18 07:41:09;;;;;;;7.10;5.35;;;;;;;21.65;66.09;100106.73;;;;-60
2021/06/18 07:44:08;;;;;;;5.57;5.09;;;;;;;21.66;66.16;100106.14;;;;-61
2021/06/18 07:47:08;;;;;;;5.61;5.07;;;;;;;21.67;65.91;100104.35;;;;-52
2021/06/18 07:50:09;;;;;;;5.33;4.89;;;;;;;21.67;65.71;100103.12;;;;-52
2021/06/18 07:53:08;;;;;;;5.59;5.05;;;;;;;21.67;65.54;100100.69;;;;-51
2021/06/18 07:56:09;;;;;;;5.82;5.32;;;;;;;21.67;65.48;100095.80;;;;-52
2021/06/18 07:59:09;;;;;;;5.61;5.11;;;;;;;21.66;65.35;100094.48;;;;-52
2021/06/18 08:02:08;;;;;;;5.39;4.95;;;;;;;21.66;65.35;100093.99;;;;-52
2021/06/18 08:05:10;;;;;;;5.23;4.81;;;;;;;21.66;65.19;100096.44;;;;-52
2021/06/18 08:08:08;;;;;;;5.45;4.94;;;;;;;21.66;65.25;100095.06;;;;-52
2021/06/18 08:11:09;;;;;;;6.00;5.05;;;;;;;21.65;65.21;100093.77;;;;-51
2021/06/18 08:14:08;;;;;;;14.19;5.43;;;;;;;21.65;65.86;100096.05;;;;-52
2021/06/18 08:17:08;;;;;;;6.08;4.86;;;;;;;21.66;65.72;100091.05;;;;-50
2021/06/18 08:20:09;;;;;;;7.67;4.91;;;;;;;21.68;65.78;100094.37;;;;-55
2021/06/18 08:23:08;;;;;;;9.11;5.29;;;;;;;21.68;65.81;100092.09;;;;-51
2021/06/18 08:26:08;;;;;;;6.83;5.19;;;;;;;21.70;65.88;100094.13;;;;-49
2021/06/18 08:29:08;;;;;;;5.25;4.76;;;;;;;21.69;65.61;100091.69;;;;-46
2021/06/18 08:32:08;;;;;;;6.48;5.09;;;;;;;21.70;65.74;100086.45;;;;-52
2021/06/18 08:35:09;;;;;;;12.07;4.90;;;;;;;21.72;65.76;100089.22;;;;-51
2021/06/18 08:38:08;;;;;;;14.54;5.83;;;;;;;21.73;65.93;100097.45;;;;-49
2021/06/18 08:41:08;;;;;;;7.03;5.16;;;;;;;21.73;65.88;100102.73;;;;-49
2021/06/18 08:44:08;;;;;;;17.67;5.75;;;;;;;21.73;66.35;100109.75;;;;-49
2021/06/18 08:47:08;;;;;;;9.05;5.52;;;;;;;21.72;66.04;100110.50;;;;-49
2021/06/18 08:50:09;;;;;;;8.11;5.26;;;;;;;21.71;65.66;100113.45;;;;-49
2021/06/18 08:53:10;;;;;;;6.62;5.10;;;;;;;21.70;65.44;100113.20;;;;-50
2021/06/18 08:56:09;;;;;;;7.39;5.33;;;;;;;21.70;65.37;100111.48;;;;-55
2021/06/18 08:59:08;;;;;;;8.55;5.11;;;;;;;21.68;65.18;100112.56;;;;-54
2021/06/18 09:02:08;;;;;;;7.89;4.99;;;;;;;21.68;65.19;100115.00;;;;-54
2021/06/18 09:05:10;;;;;;;5.75;4.84;;;;;;;21.68;65.08;100118.27;;;;-49
2021/06/18 09:08:08;;;;;;;5.40;4.89;;;;;;;21.67;65.09;100115.60;;;;-49
2021/06/18 09:11:08;;;;;;;6.27;4.97;;;;;;;21.66;65.08;100115.02;;;;-54
2021/06/18 09:14:09;;;;;;;6.34;4.91;;;;;;;21.67;65.05;100112.59;;;;-54
2021/06/18 09:17:08;;;;;;;8.87;4.89;;;;;;;21.66;65.13;100113.88;;;;-53
2021/06/18 09:20:10;;;;;;;6.97;4.91;;;;;;;21.66;65.07;100112.27;;;;-54
2021/06/18 09:23:08;;;;;;;5.80;4.95;;;;;;;21.65;65.07;100115.55;;;;-58
2021/06/18 09:26:08;;;;;;;5.94;4.98;;;;;;;21.64;65.10;100110.66;;;;-58
2021/06/18 09:29:08;;;;;;;6.61;5.01;;;;;;;21.64;65.46;100113.02;;;;-53
2021/06/18 09:32:08;;;;;;;7.27;5.49;;;;;;;21.67;65.63;100109.91;;;;-54
2021/06/18 09:35:08;;;;;;;6.06;5.12;;;;;;;21.68;65.69;100108.41;;;;-55
2021/06/18 09:38:09;;;;;;;6.03;4.73;;;;;;;21.69;65.77;100100.92;;;;-55
2021/06/18 09:41:08;;;;;;;9.30;5.05;;;;;;;21.71;65.83;100103.66;;;;-58
2021/06/18 09:44:08;;;;;;;6.55;4.77;;;;;;;21.73;65.91;100100.72;;;;-55
2021/06/18 09:47:08;;;;;;;8.76;4.79;;;;;;;21.74;65.97;100100.77;;;;-55
2021/06/18 09:50:08;;;;;;;6.50;4.64;;;;;;;21.76;65.74;100093.83;;;;-55
2021/06/18 09:53:08;;;;;;;6.11;4.84;;;;;;;21.77;66.17;100096.36;;;;-57
2021/06/18 09:56:10;;;;;;;5.86;4.94;;;;;;;21.78;66.16;100098.94;;;;-57
2021/06/18 09:59:09;;;;;;;9.43;4.92;;;;;;;21.80;66.27;100096.41;;;;-55
2021/06/18 10:02:08;;;;;;;6.93;5.00;;;;;;;21.81;66.43;100099.51;;;;-61
2021/06/18 10:05:09;;;;;;;5.49;4.46;;;;;;;21.82;66.30;100098.10;;;;-60
2021/06/18 10:08:08;;;;;;;6.25;4.71;;;;;;;21.84;66.25;100100.86;;;;-60
2021/06/18 10:11:08;;;;;;;6.64;4.63;;;;;;;21.84;66.31;100093.93;;;;-56
2021/06/18 10:14:09;;;;;;;5.58;4.67;;;;;;;21.86;66.34;100093.83;;;;-58
2021/06/18 10:17:08;;;;;;;8.16;5.06;;;;;;;21.86;66.23;100091.29;;;;-58
2021/06/18 10:20:08;;;;;;;7.68;4.89;;;;;;;21.88;66.29;100089.23;;;;-59
2021/06/18 10:23:10;;;;;;;8.49;4.99;;;;;;;21.90;66.15;100085.88;;;;-58
2021/06/18 10:26:09;;;;;;;5.47;4.93;;;;;;;21.90;66.20;100082.52;;;;-58
2021/06/18 10:29:09;;;;;;;6.20;4.82;;;;;;;21.91;66.19;100090.34;;;;-59
2021/06/18 10:32:09;;;;;;;8.39;5.07;;;;;;;21.92;66.08;100082.92;;;;-63
2021/06/18 10:35:09;;;;;;;6.06;4.81;;;;;;;21.92;65.99;100076.70;;;;-55
2021/06/18 10:38:08;;;;;;;5.32;4.57;;;;;;;21.93;66.18;100075.63;;;;-54
2021/06/18 10:41:08;;;;;;;5.89;4.64;;;;;;;21.94;66.10;100072.86;;;;-58
2021/06/18 10:44:08;;;;;;;5.02;4.37;;;;;;;21.95;66.03;100067.53;;;;-59
2021/06/18 10:47:08;;;;;;;5.74;4.61;;;;;;;21.96;65.99;100070.89;;;;-63
2021/06/18 10:50:09;;;;;;;6.73;4.59;;;;;;;21.97;66.10;100067.84;;;;-62
2021/06/18 10:53:08;;;;;;;5.91;4.47;;;;;;;21.97;66.01;100066.69;;;;-56
2021/06/18 10:56:08;;;;;;;6.98;4.85;;;;;;;21.99;65.94;100068.30;;;;-60
2021/06/18 10:59:09;;;;;;;7.21;4.58;;;;;;;21.98;65.71;100065.88;;;;-59
2021/06/18 11:02:08;;;;;;;5.09;4.43;;;;;;;21.98;65.81;100064.09;;;;-60
2021/06/18 11:05:08;;;;;;;5.69;4.26;;;;;;;21.98;65.79;100060.92;;;;-60
2021/06/18 11:08:08;;;;;;;6.36;4.86;;;;;;;21.97;65.67;100065.88;;;;-57
2021/06/18 11:11:08;;;;;;;6.06;4.43;;;;;;;21.96;65.69;100061.91;;;;-57
2021/06/18 11:14:08;;;;;;;5.95;4.65;;;;;;;21.96;65.55;100056.44;;;;-57
2021/06/18 11:17:08;;;;;;;5.75;4.43;;;;;;;21.95;65.54;100052.69;;;;-55
2021/06/18 11:20:08;;;;;;;6.45;4.72;;;;;;;21.95;65.51;100048.20;;;;-59
2021/06/18 11:23:09;;;;;;;6.69;4.27;;;;;;;21.95;65.49;100047.63;;;;-59
2021/06/18 11:26:09;;;;;;;6.71;4.35;;;;;;;21.94;65.45;100044.14;;;;-59
2021/06/18 11:29:08;;;;;;;5.64;4.12;;;;;;;21.93;65.41;100040.40;;;;-59
2021/06/18 11:32:08;;;;;;;5.29;4.38;;;;;;;21.94;65.42;100045.46;;;;-60
2021/06/18 11:35:08;;;;;;;5.53;4.36;;;;;;;21.93;65.29;100041.20;;;;-57
2021/06/18 11:38:08;;;;;;;4.71;4.23;;;;;;;21.93;65.36;100041.05;;;;-57
2021/06/18 11:41:10;;;;;;;5.14;4.31;;;;;;;21.92;65.27;100038.86;;;;-57
2021/06/18 11:44:08;;;;;;;5.85;4.46;;;;;;;21.93;65.31;100042.19;;;;-59
2021/06/18 11:47:08;;;;;;;7.14;4.32;;;;;;;21.92;65.17;100042.44;;;;-56
2021/06/18 11:50:08;;;;;;;5.40;4.41;;;;;;;21.91;65.17;100038.84;;;;-56
2021/06/18 11:53:08;;;;;;;5.08;4.42;;;;;;;21.92;65.23;100032.00;;;;-56
2021/06/18 11:56:09;;;;;;;5.66;4.19;;;;;;;21.92;65.19;100032.42;;;;-57
2021/06/18 11:59:08;;;;;;;7.39;4.40;;;;;;;21.91;65.11;100033.46;;;;-57
2021/06/18 12:02:08;;;;;;;4.53;4.12;;;;;;;21.92;65.10;100031.45;;;;-55
2021/06/18 12:05:09;;;;;;;4.56;4.13;;;;;;;21.90;65.11;100028.84;;;;-57
2021/06/18 12:08:08;;;;;;;5.13;4.15;;;;;;;21.91;65.09;100029.23;;;;-58
2021/06/18 12:11:08;;;;;;;5.46;4.20;;;;;;;21.90;65.02;100031.62;;;;-60
2021/06/18 12:14:08;;;;;;;5.65;4.22;;;;;;;21.90;65.04;100028.84;;;;-59
2021/06/18 12:17:08;;;;;;;4.47;4.06;;;;;;;21.91;65.00;100029.56;;;;-56
2021/06/18 12:20:08;;;;;;;5.47;4.27;;;;;;;21.90;64.94;100030.30;;;;-58
2021/06/18 12:23:08;;;;;;;5.01;4.01;;;;;;;21.89;64.92;100024.29;;;;-60
2021/06/18 12:26:09;;;;;;;4.27;3.93;;;;;;;21.90;64.96;100022.57;;;;-59
2021/06/18 12:29:08;;;;;;;8.92;4.31;;;;;;;21.90;65.18;100020.11;;;;-53
2021/06/18 12:32:08;;;;;;;5.09;4.05;;;;;;;21.91;65.42;100021.72;;;;-51
2021/06/18 12:35:08;;;;;;;4.62;4.16;;;;;;;21.93;65.61;100016.47;;;;-52
2021/06/18 12:38:08;;;;;;;4.80;4.23;;;;;;;21.94;65.84;100015.09;;;;-55
2021/06/18 12:41:08;;;;;;;6.92;4.27;;;;;;;21.94;65.89;100013.80;;;;-51
2021/06/18 12:44:08;;;;;;;6.27;4.55;;;;;;;21.95;66.03;100012.05;;;;-51
2021/06/18 12:47:10;;;;;;;5.11;4.33;;;;;;;21.97;65.99;100010.00;;;;-59
2021/06/18 12:50:08;;;;;;;5.20;4.03;;;;;;;21.98;66.02;100006.25;;;;-54
2021/06/18 12:53:08;;;;;;;5.41;4.18;;;;;;;21.99;66.08;100005.07;;;;-59
2021/06/18 12:56:08;;;;;;;6.26;4.12;;;;;;;21.99;66.22;100008.41;;;;-55
2021/06/18 12:59:08;;;;;;;4.61;4.05;;;;;;;22.00;66.20;100005.73;;;;-51
2021/06/18 13:02:08;;;;;;;4.73;4.21;;;;;;;22.01;66.11;100009.13;;;;-58
2021/06/18 13:05:08;;;;;;;6.36;4.23;;;;;;;22.02;66.06;100009.47;;;;-47
2021/06/18 13:08:08;;;;;;;6.15;4.18;;;;;;;22.02;66.11;100009.30;;;;-49
2021/06/18 13:11:08;;;;;;;4.79;4.21;;;;;;;22.03;66.00;100010.90;;;;-50
2021/06/18 13:14:08;;;;;;;4.67;4.13;;;;;;;22.02;66.11;100008.48;;;;-54
2021/06/18 13:17:08;;;;;;;4.82;4.15;;;;;;;22.04;66.09;100008.30;;;;-60
2021/06/18 13:20:08;;;;;;;4.75;4.24;;;;;;;22.05;66.06;100005.66;;;;-53
2021/06/18 13:23:08;;;;;;;6.39;4.30;;;;;;;22.05;66.13;100007.94;;;;-57
2021/06/18 13:26:08;;;;;;;5.12;3.97;;;;;;;22.05;65.95;100003.45;;;;-52
2021/06/18 13:29:08;;;;;;;6.33;4.29;;;;;;;22.04;65.85;100005.75;;;;-49
2021/06/18 13:32:08;;;;;;;8.71;4.55;;;;;;;22.05;66.10;99998.23;;;;-52
2021/06/18 13:35:08;;;;;;;6.74;4.05;;;;;;;22.07;66.08;99994.80;;;;-56
2021/06/18 13:38:09;;;;;;;8.07;3.87;;;;;;;22.08;65.89;99995.09;;;;-53
2021/06/18 13:41:08;;;;;;;6.17;3.87;;;;;;;22.08;66.11;99988.01;;;;-63
2021/06/18 13:44:08;;;;;;;4.87;4.35;;;;;;;22.09;65.87;99987.83;;;;-57
2021/06/18 13:47:08;;;;;;;5.20;3.95;;;;;;;22.09;65.65;99987.66;;;;-49
2021/06/18 13:50:08;;;;;;;6.09;4.07;;;;;;;22.10;65.93;99985.63;;;;-53
2021/06/18 13:53:08;;;;;;;4.48;4.05;;;;;;;22.11;65.86;99986.73;;;;-48
2021/06/18 13:56:08;;;;;;;8.47;4.25;;;;;;;22.12;66.18;99977.92;;;;-51
2021/06/18 13:59:08;;;;;;;5.65;3.79;;;;;;;22.15;65.84;99979.67;;;;-49
2021/06/18 14:02:08;;;;;;;10.67;4.35;;;;;;;22.16;65.88;99980.96;;;;-50
2021/06/18 14:05:08;;;;;;;7.40;4.26;;;;;;;22.16;65.96;99967.81;;;;-51
2021/06/18 14:08:08;;;;;;;6.46;4.00;;;;;;;22.17;65.94;99968.06;;;;-51
2021/06/18 14:11:12;;;;;;;6.28;3.90;;;;;;;22.17;65.90;99968.16;;;;-51
2021/06/18 14:14:08;;;;;;;6.21;3.92;;;;;;;22.17;65.89;99965.30;;;;-49
2021/06/18 14:17:08;;;;;;;6.33;4.00;;;;;;;22.18;65.92;99970.58;;;;-50
2021/06/18 14:20:08;;;;;;;7.39;3.99;;;;;;;22.17;65.71;99963.97;;;;-59
2021/06/18 14:23:08;;;;;;;5.45;4.01;;;;;;;22.17;65.68;99963.01;;;;-60
2021/06/18 14:26:08;;;;;;;5.16;3.91;;;;;;;22.17;65.80;99963.66;;;;-61
2021/06/18 14:29:08;;;;;;;7.33;3.79;;;;;;;22.16;65.70;99961.45;;;;-59
2021/06/18 14:32:08;;;;;;;5.23;3.66;;;;;;;22.15;65.56;99957.96;;;;-60
2021/06/18 14:35:09;;;;;;;8.51;3.86;;;;;;;22.15;65.69;99955.34;;;;-50
2021/06/18 14:38:08;;;;;;;7.01;4.13;;;;;;;22.15;65.72;99952.67;;;;-58
2021/06/18 14:41:08;;;;;;;5.89;3.96;;;;;;;22.14;65.72;99946.13;;;;-58
2021/06/18 14:44:08;;;;;;;4.51;3.85;;;;;;;22.15;65.71;99943.86;;;;-60
2021/06/18 14:47:08;;;;;;;8.57;3.97;;;;;;;22.15;65.78;99934.23;;;;-55
2021/06/18 14:50:08;;;;;;;4.66;3.95;;;;;;;22.15;65.62;99934.80;;;;-54
2021/06/18 14:53:08;;;;;;;4.15;3.69;;;;;;;22.15;65.62;99932.92;;;;-52
2021/06/18 14:56:08;;;;;;;5.23;3.74;;;;;;;22.15;65.64;99937.41;;;;-58
2021/06/18 14:59:08;;;;;;;5.59;3.90;;;;;;;22.18;65.95;99932.38;;;;-49
2021/06/18 15:02:09;;;;;;;10.63;4.20;;;;;;;22.20;65.71;99925.00;;;;-57
2021/06/18 15:05:11;;;;;;;5.81;4.05;;;;;;;22.19;65.78;99925.35;;;;-46
2021/06/18 15:08:08;;;;;;;6.19;4.01;;;;;;;22.20;65.91;99928.77;;;;-56
2021/06/18 15:11:08;;;;;;;7.37;3.90;;;;;;;22.19;65.90;99927.65;;;;-58
2021/06/18 15:14:10;;;;;;;6.01;3.99;;;;;;;22.19;65.86;99923.81;;;;-51
2021/06/18 15:17:08;;;;;;;5.69;4.15;;;;;;;22.19;65.80;99928.70;;;;-51
2021/06/18 15:20:08;;;;;;;5.21;3.89;;;;;;;22.20;65.78;99922.56;;;;-53
2021/06/18 15:23:08;;;;;;;5.99;3.81;;;;;;;22.20;65.83;99924.34;;;;-50
2021/06/18 15:26:08;;;;;;;6.21;3.84;;;;;;;22.21;65.79;99928.44;;;;-57
2021/06/18 15:29:08;;;;;;;5.11;3.97;;;;;;;22.21;65.80;99926.06;;;;-53
2021/06/18 15:32:08;;;;;;;5.03;3.99;;;;;;;22.21;65.77;99922.08;;;;-54
2021/06/18 15:35:08;;;;;;;7.02;3.71;;;;;;;22.21;65.82;99922.22;;;;-51
2021/06/18 15:38:08;;;;;;;8.40;3.86;;;;;;;22.22;65.72;99925.47;;;;-51
2021/06/18 15:41:09;;;;;;;6.30;3.86;;;;;;;22.22;65.65;99922.13;;;;-60
2021/06/18 15:44:08;;;;;;;5.68;3.85;;;;;;;22.21;65.66;99918.64;;;;-59
2021/06/18 15:47:08;;;;;;;6.51;3.84;;;;;;;22.23;65.59;99921.50;;;;-50
2021/06/18 15:50:08;;;;;;;5.92;3.77;;;;;;;22.23;65.54;99920.73;;;;-51
2021/06/18 15:53:08;;;;;;;5.20;3.77;;;;;;;22.23;65.60;99921.55;;;;-50
2021/06/18 15:56:08;;;;;;;5.86;4.00;;;;;;;22.23;65.63;99918.72;;;;-54
2021/06/18 15:59:08;;;;;;;5.61;3.73;;;;;;;22.24;65.59;99917.14;;;;-53
2021/06/18 16:02:08;;;;;;;5.15;3.69;;;;;;;22.25;65.73;99911.36;;;;-52
2021/06/18 16:05:08;;;;;;;4.28;3.81;;;;;;;22.25;65.53;99905.81;;;;-53
2021/06/18 16:08:08;;;;;;;4.19;3.53;;;;;;;22.24;65.48;99903.91;;;;-49
2021/06/18 16:11:08;;;;;;;6.14;3.73;;;;;;;22.25;65.52;99900.41;;;;-55
2021/06/18 16:14:08;;;;;;;4.81;3.48;;;;;;;22.25;65.47;99899.28;;;;-59
2021/06/18 16:17:08;;;;;;;4.49;3.68;;;;;;;22.25;65.62;99893.89;;;;-50
2021/06/18 16:20:08;;;;;;;3.99;3.59;;;;;;;22.26;65.53;99897.62;;;;-51
2021/06/18 16:23:09;;;;;;;4.85;3.57;;;;;;;22.25;65.55;99895.02;;;;-59
2021/06/18 16:26:08;;;;;;;5.85;3.55;;;;;;;22.26;65.50;99895.65;;;;-61
2021/06/18 16:29:08;;;;;;;5.13;3.77;;;;;;;22.26;65.60;99897.35;;;;-57
2021/06/18 16:32:08;;;;;;;6.48;3.63;;;;;;;22.27;65.45;99899.80;;;;-61
2021/06/18 16:35:09;;;;;;;5.64;3.90;;;;;;;22.27;65.54;99899.41;;;;-57
2021/06/18 16:38:08;;;;;;;3.85;3.49;;;;;;;22.28;65.41;99899.20;;;;-59
2021/06/18 16:41:15;;;;;;;4.93;3.52;;;;;;;22.29;65.50;99903.14;;;;-58
2021/06/18 16:44:08;;;;;;;5.97;3.55;;;;;;;22.28;65.44;99903.53;;;;-53